createdAt,value
2023-05-05T00:01:06.972Z,10.04
2023-05-05T00:16:06.847Z,9.91
2023-05-05T00:31:06.743Z,9.83
2023-05-05T00:46:06.587Z,9.81
2023-05-05T01:01:06.396Z,9.60
2023-05-05T01:16:06.253Z,9.38
2023-05-05T01:31:06.064Z,9.25
2023-05-05T01:46:06.471Z,9.13
2023-05-05T02:01:05.803Z,9.01
2023-05-05T02:16:05.629Z,8.84
2023-05-05T02:31:05.433Z,8.68
2023-05-05T02:46:05.371Z,8.40
2023-05-05T03:01:05.204Z,8.15
2023-05-05T03:16:04.963Z,8.12
2023-05-05T03:31:04.907Z,8.10
2023-05-05T03:46:04.708Z,7.93
2023-05-05T04:01:04.565Z,7.94
2023-05-05T04:16:04.391Z,8.18
2023-05-05T04:31:04.197Z,8.73
2023-05-05T04:46:04.033Z,8.97
2023-05-05T05:01:03.868Z,9.30
2023-05-05T05:16:03.771Z,9.57
2023-05-05T05:31:03.675Z,9.97
2023-05-05T05:46:03.834Z,10.44
2023-05-05T06:01:03.224Z,11.03
2023-05-05T06:16:03.111Z,12.64
2023-05-05T06:31:02.935Z,12.81
2023-05-05T06:46:02.763Z,14.19
2023-05-05T07:01:02.609Z,14.25
2023-05-05T07:16:02.622Z,14.93
2023-05-05T07:31:02.303Z,14.57
2023-05-05T07:46:02.260Z,15.76
2023-05-05T08:01:01.937Z,16.71
2023-05-05T08:16:01.890Z,17.17
2023-05-05T08:31:01.760Z,17.26
2023-05-05T08:46:01.598Z,17.91
2023-05-05T09:01:01.374Z,17.47
2023-05-05T09:16:01.169Z,18.47
2023-05-05T09:31:01.104Z,18.82
2023-05-05T09:46:00.866Z,19.46
2023-05-05T10:01:00.723Z,19.60
2023-05-05T10:16:00.580Z,18.87
2023-05-05T10:31:00.361Z,19.21
2023-05-05T10:46:00.487Z,20.30
2023-05-05T11:01:00.071Z,20.61
2023-05-05T11:16:00.790Z,20.86
2023-05-05T11:30:59.933Z,21.04
2023-05-05T11:46:00.144Z,20.39
2023-05-05T12:00:59.446Z,20.16
2023-05-05T12:16:02.324Z,21.05
2023-05-05T12:30:59.251Z,21.27
2023-05-05T12:45:59.109Z,21.24
2023-05-05T13:00:58.843Z,21.41
2023-05-05T13:15:58.693Z,21.13
2023-05-05T13:30:59.408Z,21.19
2023-05-05T13:46:08.703Z,21.32
2023-05-05T14:00:58.266Z,21.32
2023-05-05T14:15:57.996Z,21.19
2023-05-05T14:30:59.961Z,21.01
2023-05-05T14:46:01.059Z,20.34
2023-05-05T15:00:58.034Z,20.21
2023-05-05T15:15:58.586Z,20.02
2023-05-05T15:30:58.901Z,20.13
2023-05-05T15:45:57.231Z,20.06
2023-05-05T16:00:56.970Z,19.78
2023-05-05T16:15:56.783Z,18.95
2023-05-05T16:30:56.670Z,18.55
2023-05-05T16:45:56.471Z,18.28
2023-05-05T17:00:56.698Z,18.12
2023-05-05T17:15:56.099Z,17.78
2023-05-05T17:30:55.928Z,17.46
2023-05-05T17:45:55.848Z,17.13
2023-05-05T18:00:55.702Z,16.63
2023-05-05T18:15:55.448Z,16.33
2023-05-05T18:30:55.372Z,15.92
2023-05-05T18:45:55.274Z,15.63
2023-05-05T19:00:55.019Z,15.36
2023-05-05T19:15:54.846Z,15.13
2023-05-05T19:30:55.300Z,14.94
2023-05-05T19:45:54.696Z,14.68
2023-05-05T20:00:54.390Z,14.39
2023-05-05T20:15:54.426Z,14.13
2023-05-05T20:30:54.022Z,13.95
2023-05-05T20:45:53.855Z,13.70
2023-05-05T21:00:53.791Z,13.55
2023-05-05T21:15:53.577Z,13.46
2023-05-05T21:45:53.361Z,13.27
2023-05-05T22:00:53.059Z,12.99
2023-05-05T22:15:52.962Z,12.96
2023-05-05T22:30:52.770Z,12.78
2023-05-05T22:45:52.610Z,12.49
2023-05-05T23:00:52.475Z,12.20
2023-05-05T23:15:52.352Z,11.62
2023-05-05T23:30:52.195Z,11.25
2023-05-05T23:45:52.098Z,10.80
